Yeager Airport
KCRW : now visible

Airfield :











YOU CAN JOIN US ON...

 
LOGIN :

Register | Disclaimer

   EN    FR    IT 

 









Legend :    VFR   Marginal VFR   IFR   Intensive IFR   Very Intensive IFR
Visi :
Ceiling :
>= 8 km
>= 3000ft
5 to 8 km
1000 to 3000 ft
1500m to 5 km
500 to 1000 ft
800 to 1500m
200 to 500 ft
< 800m
< 200 ft
Symbols :   Thunderstorms  Fog  Heavy snow  Heavy precipitations  Wind > 20 kt






- Airport Elevation : 981 ft
- IATA code : CRW


KCRW - Yeager

CURRENT METAR :
  • 161024Z VRB06KT 6SM -RA BR SCT009 BKN013 OVC036 18/17 A2976 RMK AO2 P0014 T01780172

EXPIRED METARs :
  • 161019Z 21010KT 6SM -RA BR BKN011 BKN020 OVC034 18/17 A2977 RMK AO2 P0010 T01780172
  • 160954Z 24010G19KT 7SM -RA BKN031 BKN044 OVC050 18/17 A2974 RMK AO2 PK WND 30027/0938 RAB39 SLP061 P0006 T01830167
  • 160939Z 28015G27KT 240V310 7SM -RA FEW021 BKN033 OVC110 19/18 A2974 RMK AO2 PK WND 30027/0938 RAB39 PRESRR P0000 T01890178
  • 160854Z 16003KT 10SM SCT037 BKN046 BKN110 19/18 A2971 RMK AO2 RAB21E54 SLP052 P0000 60001 T01940183 58024
  • 160754Z 16005KT 10SM FEW037 SCT055 BKN080 19/18 A2973 RMK AO2 LTG DSNT N RAB02E45 SLP059 P0001 T01940183

TAF KCRW
Valid from the 16 at 09:00 until the 17 at 06:00 UTC


160901Z 1609/1706 18007KT P6SM VCSH BKN050
FM161000 22008G18KT 4SM SHRA OVC025
FM161100 25008G19KT 5SM -SHRA OVC015
FM161500 29008G19KT P6SM OVC025
FM161800 28012G19KT P6SM BKN050
FM170000 28005KT P6SM SCT100
KZID FIR / North America



MET'MAP, your aeronautical weather chart ! - Copyright ORBIFLY December 2007 - Disclaimer

ORBIFLY MET'MAP TEAM :

Programming & Development : Alexandra Zaïnal
Concept & original design : Baudouin d'Aumeries
Assistance for programming : Marc-Olivier Méhu
Technical & hardware support : Manuel Goepfert

Contact : metmap@orbifly.com




SOURCES & CREDITS :

   NOAA       Earth
Advisory